Terminal Aerodrome Forecast
Issued by NWS Pendleton, OR

Home | Current Version | Previous Version | Text Only | Print | Product List | Glossary On
Versions: 1 2 3 4 5 6 7 8 9 10 11 12 13
000
FTUS46 KPDT 311140
TAFPDT
TAF
KPDT 311140Z 3112/0112 14005KT P6SM SCT250
     FM311700 32007KT P6SM FEW250
     FM010300 33007KT P6SM FEW150
     FM010900 13006KT P6SM FEW170=

USA.gov is the U.S. government's official web portal to all federal, state and local government web resources and services.